Silver Gate, MT

7:26 PM MDT on July 23, 2014 (GMT -0600)
Yellowstone (KP60) Elev 7835 ft | 44.54 °N, 110.42 °W | Change Station

Current weather conditions updated 30 minutes ago

Clear
Clear
77 °F
Feels Like 77 °F
N
5
Wind Variable Wind from Variable
Gusts 26 mph

Tomorrow is forecast to be Much Cooler than today.

Today
High -- | Low -- °F
--% Chance of Precip.
Yesterday
High -- | Low -- °F
Precip. -- in
5:56 AM 8:58 PM
Waning Crescent, 8% visible
Pressure 30.04 in
Visibility -9999.0 miles
Clouds
Dew Point 35 °F
Humidity 22%
Rainfall 0.00 in
Snow Depth 1 in , 1 in
UV Not available.
Pollen 6.10 out of 12
Air Quality Not available.
Flu Activity Not available.
METAR KP60 240056Z AUTO VRB04KT 25/02 A3032 RMK AO1 SLP170 T02500017

More Conditions Fewer Conditions

Pressure 30.04 in
Visibility -9999.0 miles
Clouds
Dew Point 35 °F
Humidity 22%
Rainfall 0.00 in
Snow Depth 1 in , 1 in
UV Not available.
Pollen 6.10 out of 12
Air Quality Not available.
Flu Activity Not available.
METAR KP60 240056Z AUTO VRB04KT 25/02 A3032 RMK AO1 SLP170 T02500017

More Conditions Fewer Conditions

10-Day Weather Forecast

Almanac

Astronomy

Jul. 23, 2014 Rise Set
Actual Time 5:56 AM MDT 8:58 PM MDT
Civil Twilight 5:21 AM MDT 9:32 PM MDT
Nautical Twilight 4:36 AM MDT 10:17 PM MDT
Astronomical Twilight 3:42 AM MDT 11:11 PM MDT
Moon 3:18 AM MDT (7/23) 6:28 PM MDT (7/23)
Length of Visible Light 16h 11m
Length of Day
15h 01m
Tomorrow will be 2m 5s shorter.
Waning Crescent, 8% of the Moon is Illuminated
Today
Waning Crescent
Jul 26
New
Aug 3
First Quarter
Aug 10
Full
Aug 17
Last Quarter

Today's Extremes

State Highs State Lows

Community

WunderPhotos

Upload Photos

1,736,840 photos uploaded!

Nearby

Snow Depth

Station Depth Elevation
Northeast Entrance 1 in 7350 ft
White Mill 1 in 8700 ft
Lone Mountain 1 in 8880 ft
Porcupine 0 in 6500 ft
Tepee Creek 0 in 8000 ft

Earthquake Activity

City Distance Mag. Time & Date
Driggs, Idaho 100 miles 3.1 5:31 PM MDT
2014-07-17
Minimum magnitude displayed is 2.5.

Coastal Water Temperatures

Place Temperature
No Stations Reporting

Nearby Weather Stations

Station Location Temp. Heat Index Dew Point Humidity Wind Precip. Elev Updated Type
Old Cooke City, Montana, MT 80.1 °F 79 °F 40 °F 24% ESE  at  3.7 mph - / hr 7566 ft 7:11 PM MDT Normal
HADS SODA BUTTE CREEK AT YELLOWSTONE WY, Cooke City, MT 77 °F 75 °F - - North  at  - 0.00 in / hr 7359 ft 6:45 PM MDT MADIS
HADS TOWER FALLS RANGER STATION AT YE WY, Yellowstone National Park, WY 87 °F 83 °F 28 °F 12% SW  at  1 mph 0.00 in / hr 6266 ft 6:15 PM MDT MADIS
HADS MAMMOTH AT YELLOWSTONE NP WY, Yellowstone National Park, WY 86 °F 83 °F 18 °F 8% SSW  at  6 mph 0.00 in / hr 6298 ft 6:15 PM MDT MADIS
RAWS MAIN BOULDER MT, McLeod, MT 85 °F 82 °F 25 °F 11% South  at  4 mph 0.00 in / hr 5404 ft 6:39 PM MDT MADIS

Show More Stations Show Fewer Stations